createdAt,value
2023-05-16T00:01:49.293Z,102038.09
2023-05-16T00:04:16.230Z,102035.69
2023-05-16T00:06:42.810Z,102043.75
2023-05-16T00:09:09.350Z,102048.44
2023-05-16T00:11:35.885Z,102047.91
2023-05-16T00:14:02.721Z,102053.16
2023-05-16T00:16:30.239Z,102055.28
2023-05-16T00:18:57.910Z,102051.66
2023-05-16T00:21:25.122Z,102055.28
2023-05-16T00:23:52.834Z,102056.84
2023-05-16T00:26:19.484Z,102059.94
2023-05-16T00:28:46.276Z,102053.34
2023-05-16T00:31:12.853Z,102048.09
2023-05-16T00:33:39.398Z,102051.47
2023-05-16T00:36:06.401Z,102048.25
2023-05-16T00:38:34.544Z,102053.97
2023-05-16T00:41:01.143Z,102050.22
2023-05-16T00:43:27.715Z,102049.13
2023-05-16T00:45:54.327Z,102052.22
2023-05-16T00:48:21.020Z,102055.25
2023-05-16T00:50:47.672Z,102054.69
2023-05-16T00:53:14.224Z,102059.81
2023-05-16T00:55:41.110Z,102061.84
2023-05-16T00:58:07.878Z,102056.63
2023-05-16T01:00:34.756Z,102063.91
2023-05-16T01:03:01.597Z,102057.59
2023-05-16T01:05:29.432Z,102058.59
2023-05-16T01:07:56.426Z,102059.34
2023-05-16T01:10:23.697Z,102061.41
2023-05-16T01:13:01.209Z,102060.31
2023-05-16T01:15:39.747Z,102065.69
2023-05-16T01:18:44.685Z,102056.22
2023-05-16T01:21:35.779Z,102053.56
2023-05-16T01:24:16.050Z,102064.91
2023-05-16T01:26:44.135Z,102057.56
2023-05-16T01:29:10.874Z,102062.72
2023-05-16T01:31:37.427Z,102061.13
2023-05-16T01:34:04.505Z,102068.38
2023-05-16T01:36:44.791Z,102063.91
2023-05-16T01:42:19.640Z,102058.28
2023-05-16T01:45:12.997Z,102057.69
2023-05-16T01:47:43.351Z,102068.56
2023-05-16T01:50:20.813Z,102062.25
2023-05-16T01:52:52.900Z,102068.72
2023-05-16T01:55:48.679Z,102078.34
2023-05-16T01:58:19.264Z,102075.34
2023-05-16T02:00:46.056Z,102076.59
2023-05-16T02:03:12.644Z,102069.50
2023-05-16T02:05:39.561Z,102071.78
2023-05-16T02:08:06.507Z,102076.94
2023-05-16T02:10:33.077Z,102084.25
2023-05-16T02:12:59.727Z,102086.53
2023-05-16T02:15:26.612Z,102080.53
2023-05-16T02:17:53.695Z,102081.47
2023-05-16T02:20:20.340Z,102082.75
2023-05-16T02:22:47.597Z,102088.16
2023-05-16T02:25:15.504Z,102090.22
2023-05-16T02:27:43.255Z,102092.81
2023-05-16T02:30:12.923Z,102093.28
2023-05-16T02:32:40.653Z,102090.94
2023-05-16T02:35:08.323Z,102089.81
2023-05-16T02:37:35.163Z,102095.56
2023-05-16T02:40:02.447Z,102103.03
2023-05-16T02:42:29.382Z,102094.19
2023-05-16T02:47:37.120Z,102091.53
2023-05-16T02:52:44.425Z,102098.22
2023-05-16T03:00:37.568Z,102104.78
2023-05-16T03:03:04.521Z,102109.22
2023-05-16T03:05:31.806Z,102107.06
2023-05-16T03:07:58.487Z,102111.16
2023-05-16T03:10:25.301Z,102110.84
2023-05-16T03:12:51.931Z,102113.66
2023-05-16T03:15:18.699Z,102106.88
2023-05-16T03:17:45.361Z,102117.75
2023-05-16T03:20:12.296Z,102121.56
2023-05-16T03:22:40.670Z,102121.47
2023-05-16T03:25:07.956Z,102121.72
2023-05-16T03:27:34.673Z,102125.56
2023-05-16T03:30:01.222Z,102128.38
2023-05-16T03:32:27.727Z,102123.66
2023-05-16T03:34:54.228Z,102129.06
2023-05-16T03:37:20.862Z,102133.72
2023-05-16T03:39:47.461Z,102127.38
2023-05-16T03:42:14.043Z,102134.63
2023-05-16T03:44:41.406Z,102134.63
2023-05-16T03:47:08.178Z,102136.66
2023-05-16T03:49:37.053Z,102132.47
2023-05-16T03:52:05.188Z,102135.06
2023-05-16T03:54:31.918Z,102141.63
2023-05-16T03:56:58.423Z,102146.59
2023-05-16T03:59:25.194Z,102145.56
2023-05-16T04:01:51.665Z,102149.53
2023-05-16T04:04:18.496Z,102142.50
2023-05-16T04:06:44.974Z,102148.28
2023-05-16T04:09:12.045Z,102152.47
2023-05-16T04:11:38.885Z,102153.81
2023-05-16T04:14:05.532Z,102156.41
2023-05-16T04:16:32.686Z,102153.13
2023-05-16T04:18:59.932Z,102150.28
2023-05-16T04:21:26.569Z,102152.19
2023-05-16T04:23:53.147Z,102153.34
2023-05-16T04:26:22.771Z,102163.13
2023-05-16T04:28:49.399Z,102162.00
2023-05-16T04:31:16.450Z,102166.28
2023-05-16T04:33:43.182Z,102165.91
2023-05-16T04:36:09.824Z,102166.81
2023-05-16T04:38:36.797Z,102169.81
2023-05-16T04:41:03.955Z,102167.66
2023-05-16T04:43:30.574Z,102172.72
2023-05-16T04:45:59.110Z,102170.22
2023-05-16T04:48:25.902Z,102179.25
2023-05-16T04:50:52.725Z,102183.66
2023-05-16T04:53:19.176Z,102180.09
2023-05-16T04:55:45.755Z,102182.97
2023-05-16T04:58:12.537Z,102174.38
2023-05-16T05:00:39.786Z,102183.84
2023-05-16T05:03:06.662Z,102182.97
2023-05-16T05:05:34.026Z,102187.47
2023-05-16T05:08:02.278Z,102184.59
2023-05-16T05:10:28.831Z,102186.47
2023-05-16T05:12:55.677Z,102189.13
2023-05-16T05:15:22.455Z,102190.59
2023-05-16T05:17:49.135Z,102194.19
2023-05-16T05:20:15.912Z,102190.13
2023-05-16T05:22:42.706Z,102192.00
2023-05-16T05:25:09.704Z,102198.25
2023-05-16T05:27:36.372Z,102194.78
2023-05-16T05:30:03.880Z,102196.94
2023-05-16T05:32:31.302Z,102204.50
2023-05-16T05:34:57.972Z,102205.44
2023-05-16T05:37:25.450Z,102208.94
2023-05-16T05:39:52.030Z,102205.72
2023-05-16T05:42:18.648Z,102209.88
2023-05-16T05:44:45.169Z,102214.34
2023-05-16T05:47:12.042Z,102216.28
2023-05-16T05:49:38.802Z,102213.16
2023-05-16T05:52:05.526Z,102215.34
2023-05-16T05:54:33.890Z,102214.47
2023-05-16T05:57:00.663Z,102218.78
2023-05-16T05:59:27.604Z,102217.84
2023-05-16T06:01:54.109Z,102219.59
2023-05-16T06:04:23.438Z,102227.13
2023-05-16T06:06:49.971Z,102227.78
2023-05-16T06:09:16.782Z,102225.13
2023-05-16T06:11:45.877Z,102234.31
2023-05-16T06:14:15.939Z,102223.50
2023-05-16T06:16:42.544Z,102242.16
2023-05-16T06:19:09.905Z,102233.56
2023-05-16T06:21:36.560Z,102250.91
2023-05-16T06:24:03.465Z,102242.28
2023-05-16T06:26:30.002Z,102253.13
2023-05-16T06:28:56.574Z,102247.91
2023-05-16T06:31:23.177Z,102250.53
2023-05-16T06:33:49.821Z,102251.09
2023-05-16T06:36:16.420Z,102244.69
2023-05-16T06:38:42.969Z,102254.38
2023-05-16T06:41:09.483Z,102252.84
2023-05-16T06:43:36.219Z,102251.16
2023-05-16T06:46:03.987Z,102257.31
2023-05-16T06:48:30.758Z,102246.75
2023-05-16T06:50:57.674Z,102246.81
2023-05-16T06:53:24.247Z,102255.00
2023-05-16T06:55:51.322Z,102253.38
2023-05-16T06:58:17.832Z,102255.94
2023-05-16T07:00:44.564Z,102254.66
2023-05-16T07:03:11.385Z,102257.56
2023-05-16T07:05:37.929Z,102257.09
2023-05-16T07:08:07.597Z,102266.53
2023-05-16T07:10:34.718Z,102261.75
2023-05-16T07:13:02.025Z,102259.91
2023-05-16T07:15:28.822Z,102253.75
2023-05-16T07:17:55.577Z,102264.66
2023-05-16T07:20:22.195Z,102263.03
2023-05-16T07:22:48.827Z,102268.34
2023-05-16T07:25:16.161Z,102263.56
2023-05-16T07:27:45.185Z,102268.66
2023-05-16T07:30:16.361Z,102266.72
2023-05-16T07:32:43.556Z,102275.53
2023-05-16T07:35:10.888Z,102274.59
2023-05-16T07:37:37.617Z,102257.84
2023-05-16T07:40:04.708Z,102264.25
2023-05-16T07:42:31.959Z,102272.63
2023-05-16T07:44:58.856Z,102270.06
2023-05-16T07:47:25.899Z,102269.66
2023-05-16T07:49:52.790Z,102266.88
2023-05-16T07:52:19.713Z,102272.25
2023-05-16T07:54:47.780Z,102268.63
2023-05-16T07:57:15.733Z,102270.56
2023-05-16T07:59:43.091Z,102285.38
2023-05-16T08:02:10.736Z,102282.69
2023-05-16T08:04:37.797Z,102300.59
2023-05-16T08:07:04.743Z,102297.34
2023-05-16T08:09:31.391Z,102301.94
2023-05-16T08:11:58.040Z,102295.47
2023-05-16T08:14:24.644Z,102302.03
2023-05-16T08:16:51.552Z,102309.09
2023-05-16T08:19:18.213Z,102309.38
2023-05-16T08:21:44.830Z,102299.38
2023-05-16T08:24:12.170Z,102294.56
2023-05-16T08:26:38.987Z,102291.06
2023-05-16T08:29:05.585Z,102278.28
2023-05-16T08:31:32.860Z,102289.06
2023-05-16T08:34:02.143Z,102284.94
2023-05-16T08:36:28.775Z,102283.16
2023-05-16T08:38:55.559Z,102273.31
2023-05-16T08:41:22.127Z,102282.69
2023-05-16T08:43:49.055Z,102277.53
2023-05-16T08:46:20.850Z,102274.47
2023-05-16T08:48:49.240Z,102278.91
2023-05-16T08:51:19.115Z,102277.50
2023-05-16T08:53:52.415Z,102275.63
2023-05-16T08:56:19.330Z,102288.31
2023-05-16T08:58:46.617Z,102280.66
2023-05-16T09:01:13.751Z,102282.25
2023-05-16T09:03:41.005Z,102282.84
2023-05-16T09:06:08.433Z,102284.50
2023-05-16T09:08:35.147Z,102282.78
2023-05-16T09:11:03.615Z,102295.25
2023-05-16T09:13:30.135Z,102298.44
2023-05-16T09:16:10.200Z,102291.97
2023-05-16T09:18:37.951Z,102287.22
2023-05-16T09:21:07.899Z,102288.41
2023-05-16T09:23:37.107Z,102292.75
2023-05-16T09:26:08.065Z,102298.75
2023-05-16T09:28:37.963Z,102304.44
2023-05-16T09:31:04.618Z,102287.75
2023-05-16T09:33:31.276Z,102287.69
2023-05-16T09:35:59.622Z,102295.19
2023-05-16T09:38:27.755Z,102306.06
2023-05-16T09:40:55.514Z,102289.94
2023-05-16T09:43:25.367Z,102296.59
2023-05-16T09:45:53.679Z,102297.72
2023-05-16T09:48:21.686Z,102286.53
2023-05-16T09:50:52.409Z,102290.91
2023-05-16T09:53:27.057Z,102301.66
2023-05-16T09:56:11.764Z,102304.13
2023-05-16T09:58:39.908Z,102305.22
2023-05-16T10:01:07.875Z,102306.03
2023-05-16T10:03:36.712Z,102300.22
2023-05-16T10:06:05.891Z,102287.91
2023-05-16T10:08:37.362Z,102293.44
2023-05-16T10:11:05.887Z,102292.97
2023-05-16T10:13:34.869Z,102290.13
2023-05-16T10:16:25.500Z,102301.16
2023-05-16T10:18:52.552Z,102301.88
2023-05-16T10:21:22.101Z,102310.22
2023-05-16T10:23:51.696Z,102296.50
2023-05-16T10:26:21.454Z,102299.16
2023-05-16T10:28:49.283Z,102296.03
2023-05-16T10:31:16.426Z,102298.25
2023-05-16T10:33:43.311Z,102296.38
2023-05-16T10:36:11.282Z,102309.09
2023-05-16T10:38:38.960Z,102287.00
2023-05-16T10:41:07.119Z,102300.53
2023-05-16T10:43:33.945Z,102287.19
2023-05-16T10:46:09.990Z,102294.41
2023-05-16T10:48:39.139Z,102297.00
2023-05-16T10:51:38.636Z,102302.28
2023-05-16T10:54:10.683Z,102301.84
2023-05-16T10:56:37.677Z,102305.56
2023-05-16T10:59:05.059Z,102293.47
2023-05-16T11:01:35.439Z,102289.28
2023-05-16T11:04:05.877Z,102297.53
2023-05-16T11:06:44.926Z,102295.50
2023-05-16T11:09:11.635Z,102290.84
2023-05-16T11:11:53.714Z,102298.25
2023-05-16T11:14:20.444Z,102294.19
2023-05-16T11:17:00.758Z,102290.59
2023-05-16T11:19:34.844Z,102296.97
2023-05-16T11:22:08.498Z,102306.75
2023-05-16T11:24:36.978Z,102299.34
2023-05-16T11:27:04.862Z,102297.97
2023-05-16T11:29:33.842Z,102307.75
2023-05-16T11:32:02.356Z,102308.38
2023-05-16T11:34:31.212Z,102309.56
2023-05-16T11:36:58.163Z,102314.00
2023-05-16T11:39:25.213Z,102311.03
2023-05-16T11:41:53.935Z,102314.16
2023-05-16T11:44:20.633Z,102323.25
2023-05-16T11:46:47.785Z,102311.88
2023-05-16T11:49:14.921Z,102316.75
2023-05-16T11:51:43.413Z,102317.88
2023-05-16T11:54:10.536Z,102328.06
2023-05-16T11:56:37.535Z,102320.53
2023-05-16T11:59:04.522Z,102324.06
2023-05-16T12:01:40.474Z,102330.72
2023-05-16T12:04:12.503Z,102332.59
2023-05-16T12:06:40.066Z,102326.19
2023-05-16T12:09:11.178Z,102325.41
2023-05-16T12:11:38.786Z,102332.69
2023-05-16T12:14:10.417Z,102322.16
2023-05-16T12:16:38.123Z,102321.66
2023-05-16T12:19:08.419Z,102326.44
2023-05-16T12:21:35.920Z,102328.03
2023-05-16T12:24:02.623Z,102337.53
2023-05-16T12:26:33.895Z,102330.34
2023-05-16T12:29:03.604Z,102324.38
2023-05-16T12:31:32.550Z,102323.38
2023-05-16T12:33:59.733Z,102335.91
2023-05-16T12:36:26.543Z,102333.69
2023-05-16T12:38:53.744Z,102334.69
2023-05-16T12:41:21.722Z,102328.66
2023-05-16T12:43:49.243Z,102336.84
2023-05-16T12:46:16.444Z,102337.69
2023-05-16T12:48:44.251Z,102335.94
2023-05-16T12:51:15.860Z,102337.81
2023-05-16T12:53:57.644Z,102329.28
2023-05-16T12:56:28.401Z,102333.50
2023-05-16T12:58:55.394Z,102332.28
2023-05-16T13:01:22.003Z,102333.47
2023-05-16T13:03:48.787Z,102346.59
2023-05-16T13:06:15.890Z,102338.69
2023-05-16T13:08:42.672Z,102334.94
2023-05-16T13:11:09.356Z,102339.13
2023-05-16T13:13:36.777Z,102331.78
2023-05-16T13:16:04.343Z,102335.63
2023-05-16T13:18:31.600Z,102335.97
2023-05-16T13:20:58.646Z,102335.63
2023-05-16T13:23:25.269Z,102340.50
2023-05-16T13:25:53.054Z,102343.66
2023-05-16T13:28:19.633Z,102344.50
2023-05-16T13:30:46.148Z,102342.66
2023-05-16T13:33:12.826Z,102341.63
2023-05-16T13:35:39.404Z,102337.81
2023-05-16T13:38:05.972Z,102339.16
2023-05-16T13:40:32.969Z,102340.34
2023-05-16T13:43:01.029Z,102339.25
2023-05-16T13:45:28.793Z,102341.13
2023-05-16T13:47:55.994Z,102332.31
2023-05-16T13:50:25.103Z,102336.25
2023-05-16T13:52:52.311Z,102330.97
2023-05-16T13:55:19.242Z,102332.56
2023-05-16T13:57:46.127Z,102330.56
2023-05-16T14:02:43.249Z,102331.41
2023-05-16T14:05:10.419Z,102334.59
2023-05-16T14:07:37.693Z,102330.81
2023-05-16T14:10:06.735Z,102336.97
2023-05-16T14:12:33.982Z,102334.13
2023-05-16T14:15:00.851Z,102340.31
2023-05-16T14:17:27.472Z,102337.72
2023-05-16T14:19:54.038Z,102350.84
2023-05-16T14:22:20.776Z,102337.19
2023-05-16T14:24:47.398Z,102339.44
2023-05-16T14:27:15.350Z,102342.09
2023-05-16T14:29:42.083Z,102340.22
2023-05-16T14:32:11.420Z,102341.72
2023-05-16T14:34:38.058Z,102341.63
2023-05-16T14:37:04.778Z,102345.66
2023-05-16T14:39:31.469Z,102340.69
2023-05-16T14:41:58.061Z,102341.63
2023-05-16T14:44:25.155Z,102346.69
2023-05-16T14:46:51.891Z,102343.88
2023-05-16T14:49:18.432Z,102340.53
2023-05-16T14:51:50.493Z,102340.97
2023-05-16T14:54:17.097Z,102343.41
2023-05-16T14:56:43.803Z,102345.06
2023-05-16T14:59:10.310Z,102350.31
2023-05-16T15:01:37.188Z,102347.16
2023-05-16T15:04:03.836Z,102347.69
2023-05-16T15:06:30.599Z,102333.19
2023-05-16T15:08:57.186Z,102341.59
2023-05-16T15:11:23.765Z,102342.16
2023-05-16T15:13:50.433Z,102340.81
2023-05-16T15:16:17.054Z,102345.34
2023-05-16T15:18:43.912Z,102342.88
2023-05-16T15:21:10.542Z,102349.44
2023-05-16T15:23:37.369Z,102342.00
2023-05-16T15:26:04.523Z,102355.19
2023-05-16T15:28:31.103Z,102342.28
2023-05-16T15:30:57.617Z,102338.25
2023-05-16T15:33:24.132Z,102353.66
2023-05-16T15:35:52.029Z,102353.69
2023-05-16T15:38:18.488Z,102345.03
2023-05-16T15:40:44.997Z,102352.50
2023-05-16T15:43:11.421Z,102355.44
2023-05-16T15:45:40.107Z,102363.09
2023-05-16T15:48:07.223Z,102353.03
2023-05-16T15:50:33.962Z,102363.13
2023-05-16T15:53:00.726Z,102358.47
2023-05-16T15:55:27.547Z,102361.16
2023-05-16T15:57:57.340Z,102361.22
2023-05-16T16:00:24.900Z,102373.72
2023-05-16T16:02:51.884Z,102373.81
2023-05-16T16:05:18.628Z,102365.69
2023-05-16T16:07:45.748Z,102369.16
2023-05-16T16:10:12.793Z,102372.34
2023-05-16T16:12:39.886Z,102369.47
2023-05-16T16:15:07.496Z,102372.44
2023-05-16T16:17:34.107Z,102373.47
2023-05-16T16:20:01.087Z,102380.59
2023-05-16T16:22:27.709Z,102373.25
2023-05-16T16:24:54.330Z,102373.78
2023-05-16T16:27:21.212Z,102374.31
2023-05-16T16:29:47.665Z,102369.03
2023-05-16T16:32:14.560Z,102375.63
2023-05-16T16:34:41.109Z,102385.34
2023-05-16T16:37:10.007Z,102374.84
2023-05-16T16:39:36.563Z,102383.00
2023-05-16T16:42:03.152Z,102389.53
2023-05-16T16:44:29.869Z,102385.06
2023-05-16T16:46:56.599Z,102390.56
2023-05-16T16:49:23.233Z,102389.28
2023-05-16T16:51:50.147Z,102391.06
2023-05-16T16:54:16.802Z,102390.53
2023-05-16T16:56:43.372Z,102401.00
2023-05-16T16:59:10.093Z,102397.03
2023-05-16T17:01:37.006Z,102395.72
2023-05-16T17:04:04.445Z,102394.38
2023-05-16T17:06:31.129Z,102399.09
2023-05-16T17:09:02.269Z,102400.19
2023-05-16T17:11:30.144Z,102401.81
2023-05-16T17:13:59.866Z,102405.25
2023-05-16T17:16:28.786Z,102397.13
2023-05-16T17:18:56.266Z,102403.41
2023-05-16T17:21:22.867Z,102403.72
2023-05-16T17:23:52.334Z,102410.03
2023-05-16T17:26:19.195Z,102409.00
2023-05-16T17:28:48.505Z,102415.56
2023-05-16T17:31:15.208Z,102413.72
2023-05-16T17:33:43.911Z,102412.69
2023-05-16T17:36:10.904Z,102419.53
2023-05-16T17:38:37.701Z,102417.94
2023-05-16T17:41:04.766Z,102411.38
2023-05-16T17:43:31.712Z,102422.69
2023-05-16T17:45:58.644Z,102418.50
2023-05-16T17:48:25.340Z,102429.25
2023-05-16T17:50:52.175Z,102421.38
2023-05-16T17:53:19.457Z,102426.38
2023-05-16T17:55:46.507Z,102420.56
2023-05-16T17:58:19.268Z,102424.25
2023-05-16T18:00:48.895Z,102436.63
2023-05-16T18:03:15.878Z,102444.47
2023-05-16T18:05:42.516Z,102441.31
2023-05-16T18:08:09.124Z,102446.31
2023-05-16T18:10:50.416Z,102447.34
2023-05-16T18:13:18.023Z,102449.97
2023-05-16T18:15:44.789Z,102450.00
2023-05-16T18:18:11.807Z,102456.81
2023-05-16T18:20:38.448Z,102459.97
2023-05-16T18:23:05.385Z,102456.03
2023-05-16T18:25:32.209Z,102459.72
2023-05-16T18:27:58.794Z,102455.22
2023-05-16T18:30:26.315Z,102454.44
2023-05-16T18:32:53.002Z,102463.34
2023-05-16T18:35:19.651Z,102467.84
2023-05-16T18:37:46.727Z,102465.44
2023-05-16T18:40:13.784Z,102463.59
2023-05-16T18:42:40.539Z,102458.06
2023-05-16T18:45:08.285Z,102470.09
2023-05-16T18:47:34.947Z,102471.13
2023-05-16T18:50:01.765Z,102468.78
2023-05-16T18:52:28.419Z,102462.44
2023-05-16T18:54:54.943Z,102464.50
2023-05-16T18:57:21.744Z,102474.75
2023-05-16T18:59:49.852Z,102473.16
2023-05-16T19:02:20.553Z,102480.16
2023-05-16T19:05:01.313Z,102476.72
2023-05-16T19:07:28.731Z,102480.09
2023-05-16T19:09:56.003Z,102476.88
2023-05-16T19:12:22.987Z,102486.78
2023-05-16T19:14:49.643Z,102478.13
2023-05-16T19:17:16.390Z,102491.94
2023-05-16T19:19:43.287Z,102497.38
2023-05-16T19:22:09.879Z,102500.19
2023-05-16T19:24:36.604Z,102498.81
2023-05-16T19:27:04.152Z,102504.78
2023-05-16T19:29:30.851Z,102504.25
2023-05-16T19:31:57.746Z,102502.88
2023-05-16T19:34:26.549Z,102511.19
2023-05-16T19:36:53.457Z,102511.19
2023-05-16T19:39:19.993Z,102506.94
2023-05-16T19:41:51.609Z,102517.63
2023-05-16T19:44:18.901Z,102510.25
2023-05-16T19:46:45.491Z,102514.84
2023-05-16T19:49:11.956Z,102515.84
2023-05-16T19:51:41.840Z,102517.88
2023-05-16T19:54:08.864Z,102506.56
2023-05-16T19:56:35.856Z,102510.94
2023-05-16T19:59:02.713Z,102513.00
2023-05-16T20:01:29.704Z,102518.16
2023-05-16T20:03:56.279Z,102506.63
2023-05-16T20:06:22.832Z,102519.69
2023-05-16T20:08:49.537Z,102515.19
2023-05-16T20:11:16.080Z,102520.44
2023-05-16T20:13:42.585Z,102518.06
2023-05-16T20:16:09.380Z,102520.13
2023-05-16T20:18:36.353Z,102519.09
2023-05-16T20:21:03.311Z,102516.72
2023-05-16T20:23:29.992Z,102523.56
2023-05-16T20:25:56.807Z,102532.66
2023-05-16T20:28:23.349Z,102527.41
2023-05-16T20:30:49.997Z,102527.91
2023-05-16T20:33:16.731Z,102523.94
2023-05-16T20:35:43.415Z,102528.34
2023-05-16T20:38:10.183Z,102534.97
2023-05-16T20:40:36.891Z,102534.88
2023-05-16T20:43:03.488Z,102540.28
2023-05-16T20:47:58.043Z,102538.81
2023-05-16T20:50:24.569Z,102538.25
2023-05-16T20:52:51.273Z,102541.28
2023-05-16T20:55:17.915Z,102548.00
2023-05-16T20:57:44.442Z,102553.94
2023-05-16T21:00:11.542Z,102552.03
2023-05-16T21:02:38.043Z,102560.91
2023-05-16T21:05:23.201Z,102558.75
2023-05-16T21:07:51.359Z,102561.84
2023-05-16T21:10:18.030Z,102552.09
2023-05-16T21:12:44.699Z,102561.44
2023-05-16T21:15:11.498Z,102550.84
2023-05-16T21:17:39.641Z,102560.38
2023-05-16T21:20:07.054Z,102557.72
2023-05-16T21:22:33.590Z,102560.00
2023-05-16T21:25:00.057Z,102554.44
2023-05-16T21:27:26.558Z,102555.94
2023-05-16T21:29:53.121Z,102560.59
2023-05-16T21:32:19.673Z,102567.31
2023-05-16T21:34:46.244Z,102563.91
2023-05-16T21:37:12.920Z,102563.81
2023-05-16T21:39:39.515Z,102569.50
2023-05-16T21:42:06.260Z,102562.59
2023-05-16T21:44:32.785Z,102563.63
2023-05-16T21:46:59.393Z,102574.84
2023-05-16T21:49:26.036Z,102576.09
2023-05-16T21:51:52.538Z,102571.38
2023-05-16T21:54:19.073Z,102575.69
2023-05-16T21:56:45.678Z,102580.34
2023-05-16T21:59:13.832Z,102570.59
2023-05-16T22:01:40.332Z,102572.88
2023-05-16T22:04:06.989Z,102579.09
2023-05-16T22:06:33.615Z,102585.00
2023-05-16T22:09:01.595Z,102583.66
2023-05-16T22:11:28.628Z,102580.16
2023-05-16T22:13:55.179Z,102579.59
2023-05-16T22:16:21.822Z,102592.50
2023-05-16T22:18:48.499Z,102582.78
2023-05-16T22:21:16.387Z,102585.81
2023-05-16T22:23:43.017Z,102583.47
2023-05-16T22:26:09.560Z,102581.53
2023-05-16T22:28:36.168Z,102580.97
2023-05-16T22:31:02.857Z,102578.84
2023-05-16T22:33:29.891Z,102586.09
2023-05-16T22:35:56.854Z,102586.53
2023-05-16T22:38:23.572Z,102584.97
2023-05-16T22:40:50.138Z,102590.56
2023-05-16T22:43:16.646Z,102591.84
2023-05-16T22:45:43.389Z,102589.44
2023-05-16T22:48:09.973Z,102586.50
2023-05-16T22:50:36.669Z,102596.59
2023-05-16T22:53:03.479Z,102592.84
2023-05-16T22:55:30.304Z,102598.06
2023-05-16T22:57:59.902Z,102597.50
2023-05-16T23:00:26.526Z,102598.16
2023-05-16T23:02:53.224Z,102590.00
2023-05-16T23:05:19.951Z,102587.84
2023-05-16T23:07:46.836Z,102596.66
2023-05-16T23:10:13.428Z,102602.91
2023-05-16T23:12:40.016Z,102596.34
2023-05-16T23:15:10.053Z,102588.75
2023-05-16T23:17:39.756Z,102589.75
2023-05-16T23:20:07.306Z,102590.78
2023-05-16T23:22:33.930Z,102598.47
2023-05-16T23:25:00.670Z,102592.13
2023-05-16T23:27:27.288Z,102603.56
2023-05-16T23:29:53.840Z,102597.00
2023-05-16T23:32:20.434Z,102615.44
2023-05-16T23:34:47.062Z,102615.88
2023-05-16T23:37:13.861Z,102623.09
2023-05-16T23:39:41.083Z,102617.13
2023-05-16T23:42:07.768Z,102612.03
2023-05-16T23:44:34.838Z,102619.25
2023-05-16T23:47:01.334Z,102614.03
2023-05-16T23:49:27.851Z,102609.28
2023-05-16T23:51:57.915Z,102611.31
2023-05-16T23:54:25.874Z,102615.94
2023-05-16T23:56:52.476Z,102612.75
2023-05-16T23:59:19.168Z,102615.22
